createdAt,value
2023-01-19T06:34:44.826Z,96111.03
2023-01-19T06:36:47.772Z,96117.59
2023-01-19T06:38:50.437Z,96122.97
2023-01-19T06:40:55.084Z,96114.81
2023-01-19T06:42:58.167Z,96109.41
2023-01-19T06:45:01.110Z,96119.88
2023-01-19T06:47:15.997Z,96124.44
2023-01-19T06:49:18.898Z,96120.50
2023-01-19T06:51:23.617Z,96121.81
2023-01-19T06:53:27.981Z,96128.50
2023-01-19T06:55:30.762Z,96134.53
2023-01-19T06:57:33.424Z,96126.53
2023-01-19T06:59:36.191Z,96127.34
2023-01-19T07:01:39.022Z,96129.97
2023-01-19T07:03:41.754Z,96135.00
2023-01-19T07:05:44.523Z,96137.63
2023-01-19T07:07:52.638Z,96134.69
2023-01-19T07:09:55.514Z,96137.16
2023-01-19T07:11:58.284Z,96137.16
2023-01-19T07:14:01.214Z,96136.34
2023-01-19T07:16:07.349Z,96145.63
2023-01-19T07:18:10.874Z,96132.91
2023-01-19T07:20:15.152Z,96146.97
2023-01-19T07:22:18.338Z,96150.38
2023-01-19T07:24:22.365Z,96149.56
2023-01-19T07:26:25.305Z,96157.41
2023-01-19T07:28:31.296Z,96159.03
2023-01-19T07:30:34.191Z,96155.28
2023-01-19T07:32:37.073Z,96157.25
2023-01-19T07:34:39.831Z,96162.47
2023-01-19T07:36:44.909Z,96153.81
2023-01-19T07:38:47.552Z,96168.50
2023-01-19T07:40:51.747Z,96164.28
2023-01-19T07:42:54.656Z,96159.38
2023-01-19T07:44:57.574Z,96158.22
2023-01-19T07:47:00.281Z,96160.50
2023-01-19T07:49:03.132Z,96160.16
2023-01-19T07:51:10.451Z,96161.66
2023-01-19T07:53:15.251Z,96168.19
2023-01-19T07:55:18.207Z,96167.03
2023-01-19T07:57:22.753Z,96172.09
2023-01-19T07:59:25.833Z,96167.53
2023-01-19T08:01:29.615Z,96165.56
2023-01-19T08:03:33.950Z,96169.16
2023-01-19T08:05:36.880Z,96170.78
2023-01-19T08:07:39.740Z,96168.00
2023-01-19T08:09:42.549Z,96178.28
2023-01-19T08:11:45.343Z,96178.75
2023-01-19T08:13:49.656Z,96181.56
2023-01-19T08:15:53.291Z,96189.09
2023-01-19T08:17:57.754Z,96193.47
2023-01-19T08:20:00.636Z,96183.19
2023-01-19T08:22:03.771Z,96196.94
2023-01-19T08:24:07.091Z,96188.09
2023-01-19T08:26:20.366Z,96193.16
2023-01-19T08:28:25.314Z,96193.63
2023-01-19T08:30:30.290Z,96201.31
2023-01-19T08:32:33.032Z,96196.25
2023-01-19T08:34:36.210Z,96202.13
2023-01-19T08:36:39.151Z,96200.16
2023-01-19T08:38:44.651Z,96211.13
2023-01-19T08:40:47.661Z,96206.72
2023-01-19T08:42:50.696Z,96208.34
2023-01-19T08:44:58.041Z,96204.72
2023-01-19T08:47:02.816Z,96206.84
2023-01-19T08:49:05.539Z,96206.66
2023-01-19T08:51:08.394Z,96210.59
2023-01-19T08:53:11.415Z,96207.00
2023-01-19T08:55:14.205Z,96211.25
2023-01-19T08:57:16.907Z,96214.69
2023-01-19T08:59:19.672Z,96216.47
2023-01-19T09:01:22.718Z,96222.69
2023-01-19T09:03:26.932Z,96225.97
2023-01-19T09:05:31.763Z,96221.38
2023-01-19T09:07:35.712Z,96224.50
2023-01-19T09:09:43.345Z,96220.53
2023-01-19T09:11:48.329Z,96229.22
2023-01-19T09:13:51.308Z,96226.59
2023-01-19T09:15:56.254Z,96233.44
2023-01-19T09:17:59.301Z,96230.84
2023-01-19T09:20:04.531Z,96235.25
2023-01-19T09:22:07.341Z,96232.81
2023-01-19T09:24:10.144Z,96234.09
2023-01-19T09:26:12.902Z,96233.94
2023-01-19T09:28:17.694Z,96232.81
2023-01-19T09:30:21.551Z,96230.19
2023-01-19T09:32:24.335Z,96233.09
2023-01-19T09:34:27.323Z,96233.28
2023-01-19T09:36:32.631Z,96236.53
2023-01-19T09:38:35.915Z,96231.00
2023-01-19T09:40:43.653Z,96231.28
2023-01-19T09:42:54.476Z,96230.47
2023-01-19T09:44:57.132Z,96237.34
2023-01-19T09:47:02.408Z,96239.63
2023-01-19T09:49:13.377Z,96245.66
2023-01-19T09:51:19.418Z,96243.91
2023-01-19T09:53:34.980Z,96255.19
2023-01-19T09:55:41.149Z,96253.84
2023-01-19T09:57:45.063Z,96243.22
2023-01-19T09:59:51.246Z,96249.91
2023-01-19T10:02:07.676Z,96243.69
2023-01-19T10:04:41.394Z,96235.00
2023-01-19T10:06:44.939Z,96243.69
2023-01-19T10:08:56.728Z,96246.47
2023-01-19T10:11:02.202Z,96248.78
2023-01-19T10:13:31.233Z,96246.78
2023-01-19T10:15:47.368Z,96245.81
2023-01-19T10:18:02.941Z,96247.59
2023-01-19T10:20:14.738Z,96238.94
2023-01-19T10:22:22.178Z,96241.38
2023-01-19T10:24:30.022Z,96236.63
2023-01-19T10:26:35.656Z,96240.19
2023-01-19T10:28:39.914Z,96241.84
2023-01-19T10:30:47.624Z,96238.56
2023-01-19T10:32:51.016Z,96244.78
2023-01-19T10:34:55.670Z,96239.22
2023-01-19T10:37:03.767Z,96234.44
2023-01-19T10:39:08.203Z,96239.34
2023-01-19T10:41:15.737Z,96237.22
2023-01-19T10:43:40.339Z,96237.84
2023-01-19T10:45:43.406Z,96239.31
2023-01-19T10:47:47.678Z,96233.44
2023-01-19T10:49:50.785Z,96229.81
2023-01-19T10:51:54.571Z,96227.03
2023-01-19T10:54:00.831Z,96232.75
2023-01-19T10:56:17.753Z,96229.28
2023-01-19T10:58:30.103Z,96232.63
2023-01-19T11:00:36.531Z,96229.34
2023-01-19T11:02:51.660Z,96223.47
2023-01-19T11:04:56.702Z,96225.09
2023-01-19T11:07:15.180Z,96210.38
2023-01-19T11:09:21.076Z,96222.50
2023-01-19T11:11:25.731Z,96215.28
2023-01-19T11:13:28.527Z,96213.63
2023-01-19T11:15:34.853Z,96210.84
2023-01-19T11:17:37.987Z,96216.38
2023-01-19T11:19:40.810Z,96205.72
2023-01-19T11:21:43.764Z,96204.59
2023-01-19T11:23:51.200Z,96192.94
2023-01-19T11:25:55.981Z,96197.81
2023-01-19T11:28:00.424Z,96189.97
2023-01-19T11:30:11.463Z,96185.38
2023-01-19T11:32:22.454Z,96187.50
2023-01-19T11:34:31.803Z,96183.16
2023-01-19T11:36:36.576Z,96179.34
2023-01-19T11:38:44.595Z,96177.84
2023-01-19T11:40:51.829Z,96182.53
2023-01-19T11:42:54.659Z,96177.84
2023-01-19T11:45:05.149Z,96176.56
2023-01-19T11:47:13.730Z,96170.84
2023-01-19T11:49:23.094Z,96167.56
2023-01-19T11:51:30.965Z,96172.00
2023-01-19T11:53:35.085Z,96170.84
2023-01-19T11:55:42.508Z,96167.84
2023-01-19T11:57:48.176Z,96156.69
2023-01-19T11:59:51.136Z,96164.19
2023-01-19T12:01:59.791Z,96162.56
2023-01-19T12:04:07.792Z,96155.69
2023-01-19T12:06:13.674Z,96154.69
2023-01-19T12:08:21.811Z,96152.72
2023-01-19T12:10:28.107Z,96151.72
2023-01-19T12:12:33.373Z,96152.09
2023-01-19T12:14:42.187Z,96147.56
2023-01-19T12:16:45.581Z,96160.00
2023-01-19T12:18:55.466Z,96156.75
2023-01-19T12:20:58.874Z,96154.31
2023-01-19T12:23:12.841Z,96151.41
2023-01-19T12:25:23.834Z,96153.66
2023-01-19T12:27:38.793Z,96139.38
2023-01-19T12:29:42.803Z,96143.63
2023-01-19T12:31:51.606Z,96142.00
2023-01-19T12:33:56.737Z,96150.88
2023-01-19T12:36:00.944Z,96150.88
2023-01-19T12:38:43.663Z,96143.81
2023-01-19T12:40:46.991Z,96150.06
2023-01-19T12:42:56.973Z,96149.41
2023-01-19T12:45:07.730Z,96144.34
2023-01-19T12:47:24.579Z,96144.34
2023-01-19T12:49:32.494Z,96140.09
2023-01-19T12:51:35.614Z,96137.00
2023-01-19T12:53:38.445Z,96144.69
2023-01-19T12:55:46.768Z,96141.09
2023-01-19T12:57:57.669Z,96133.06
2023-01-19T13:00:02.613Z,96138.75
2023-01-19T13:02:33.546Z,96127.47
2023-01-19T13:04:38.466Z,96125.66
2023-01-19T13:07:10.903Z,96128.44
2023-01-19T13:09:31.356Z,96129.25
2023-01-19T13:11:34.779Z,96126.81
2023-01-19T13:13:38.709Z,96127.63
2023-01-19T13:15:41.772Z,96120.78
2023-01-19T13:17:50.897Z,96130.44
2023-01-19T13:20:01.798Z,96133.25
2023-01-19T13:22:37.625Z,96124.06
2023-01-19T13:24:56.998Z,96124.72
2023-01-19T13:27:04.441Z,96120.66
2023-01-19T13:29:09.614Z,96121.47
2023-01-19T13:31:14.346Z,96116.03
2023-01-19T13:33:22.322Z,96121.75
2023-01-19T13:35:26.755Z,96121.41
2023-01-19T13:37:35.052Z,96121.41
2023-01-19T13:39:41.382Z,96115.16
2023-01-19T13:41:45.568Z,96115.34
2023-01-19T13:43:52.709Z,96117.97
2023-01-19T13:45:56.407Z,96113.53
2023-01-19T13:48:02.459Z,96117.97
2023-01-19T13:50:06.193Z,96114.34
2023-01-19T13:52:14.672Z,96109.94
2023-01-19T13:54:18.094Z,96114.00
2023-01-19T13:56:23.582Z,96111.91
2023-01-19T13:58:28.039Z,96114.00
2023-01-19T14:00:31.618Z,96109.56
2023-01-19T14:02:34.498Z,96108.75
2023-01-19T14:04:37.354Z,96105.97
2023-01-19T14:06:45.896Z,96097.28
2023-01-19T14:09:06.729Z,96098.91
2023-01-19T14:11:14.895Z,96102.34
2023-01-19T14:13:19.806Z,96096.28
2023-01-19T14:15:22.728Z,96093.84
2023-01-19T14:17:27.731Z,96096.28
2023-01-19T14:19:30.629Z,96092.72
2023-01-19T14:21:41.816Z,96092.72
2023-01-19T14:23:47.982Z,96090.22
2023-01-19T14:25:52.204Z,96091.88
2023-01-19T14:28:28.338Z,96084.66
2023-01-19T14:30:35.839Z,96089.53
2023-01-19T14:32:47.711Z,96087.28
2023-01-19T14:34:52.728Z,96083.84
2023-01-19T14:36:55.675Z,96078.63
2023-01-19T14:39:01.095Z,96082.69
2023-01-19T14:41:05.527Z,96084.31
2023-01-19T14:43:14.289Z,96074.19
2023-01-19T14:45:21.243Z,96075.69
2023-01-19T14:47:32.132Z,96074.50
2023-01-19T14:49:37.076Z,96077.78
2023-01-19T14:51:39.979Z,96080.56
2023-01-19T14:53:48.745Z,96064.03
2023-01-19T14:55:55.539Z,96067.47
2023-01-19T14:57:59.680Z,96062.72
2023-01-19T15:00:07.353Z,96065.31
2023-01-19T15:02:10.635Z,96056.28
2023-01-19T15:04:13.614Z,96062.34
2023-01-19T15:06:19.747Z,96062.34
2023-01-19T15:08:31.332Z,96057.72
2023-01-19T15:10:36.299Z,96056.75
2023-01-19T15:12:39.273Z,96057.72
2023-01-19T15:14:43.397Z,96060.97
2023-01-19T15:16:46.724Z,96054.13
2023-01-19T15:18:49.421Z,96062.97
2023-01-19T15:20:52.239Z,96052.50
2023-01-19T15:22:55.007Z,96053.66
2023-01-19T15:24:59.945Z,96056.47
2023-01-19T15:27:02.792Z,96056.47
2023-01-19T15:29:17.431Z,96054.84
2023-01-19T15:31:23.297Z,96064.50
2023-01-19T15:33:31.560Z,96056.16
2023-01-19T15:35:34.325Z,96055.19
2023-01-19T15:37:37.518Z,96051.75
2023-01-19T15:39:43.553Z,96052.91
2023-01-19T15:41:48.852Z,96052.75
2023-01-19T15:43:52.736Z,96055.19
2023-01-19T15:46:01.239Z,96051.13
2023-01-19T15:48:07.051Z,96047.69
2023-01-19T15:50:11.370Z,96044.25
2023-01-19T15:52:15.410Z,96040.81
2023-01-19T15:54:20.164Z,96035.56
2023-01-19T15:56:24.826Z,96036.56
2023-01-19T15:58:27.524Z,96036.56
2023-01-19T16:00:31.249Z,96035.75
2023-01-19T16:02:34.301Z,96033.31
2023-01-19T16:04:38.660Z,96030.06
2023-01-19T16:06:41.604Z,96027.63
2023-01-19T16:08:45.107Z,96026.78
2023-01-19T16:10:48.463Z,96027.78
2023-01-19T16:12:52.582Z,96019.28
2023-01-19T16:14:55.671Z,96028.31
2023-01-19T16:16:59.890Z,96021.47
2023-01-19T16:19:02.769Z,96024.25
2023-01-19T16:21:07.176Z,96019.00
2023-01-19T16:23:14.853Z,96021.00
2023-01-19T16:25:18.479Z,96016.91
2023-01-19T16:27:21.388Z,96010.84
2023-01-19T16:29:24.207Z,96011.03
2023-01-19T16:31:27.130Z,96013.22
2023-01-19T16:33:29.918Z,96015.19
2023-01-19T16:35:32.589Z,96005.06
2023-01-19T16:37:37.071Z,96015.25
2023-01-19T16:39:39.780Z,96013.88
2023-01-19T16:41:43.831Z,96007.41
2023-01-19T16:43:51.674Z,96008.63
2023-01-19T16:45:59.054Z,96008.69
2023-01-19T16:48:01.926Z,96008.19
2023-01-19T16:50:05.217Z,96002.97
2023-01-19T16:52:08.239Z,96001.84
2023-01-19T16:54:14.530Z,96000.19
2023-01-19T16:56:17.212Z,96000.31
2023-01-19T16:58:20.076Z,95995.53
2023-01-19T17:00:22.922Z,95998.78
2023-01-19T17:02:25.897Z,96000.16
2023-01-19T17:04:29.471Z,95989.19
2023-01-19T17:06:32.726Z,95994.91
2023-01-19T17:08:36.429Z,95998.34
2023-01-19T17:10:41.940Z,96001.94
2023-01-19T17:12:44.785Z,95999.16
2023-01-19T17:14:48.257Z,95990.66
2023-01-19T17:16:51.486Z,95993.47
2023-01-19T17:18:54.649Z,95989.03
2023-01-19T17:21:02.253Z,95992.97
2023-01-19T17:23:05.119Z,95990.88
2023-01-19T17:25:09.033Z,95984.50
2023-01-19T17:27:13.571Z,95981.50
2023-01-19T17:29:17.362Z,95984.63
2023-01-19T17:31:22.244Z,95976.59
2023-01-19T17:33:25.995Z,95974.59
2023-01-19T17:35:28.764Z,95970.81
2023-01-19T17:37:31.623Z,95974.06
2023-01-19T17:39:35.153Z,95975.53
2023-01-19T17:41:39.138Z,95968.31
2023-01-19T17:43:43.765Z,95969.94
2023-01-19T17:45:46.676Z,95967.34
2023-01-19T17:47:50.211Z,95965.16
2023-01-19T17:49:52.984Z,95967.16
2023-01-19T17:51:56.065Z,95969.13
2023-01-19T17:53:59.704Z,95971.56
2023-01-19T17:56:06.258Z,95962.53
2023-01-19T17:58:08.962Z,95965.97
2023-01-19T18:00:14.663Z,95957.13
2023-01-19T18:02:17.632Z,95963.19
2023-01-19T18:04:20.355Z,95964.00
2023-01-19T18:06:23.640Z,95960.22
2023-01-19T18:08:26.386Z,95959.25
2023-01-19T18:10:29.233Z,95953.00
2023-01-19T18:12:31.990Z,95954.63
2023-01-19T18:14:34.657Z,95958.44
2023-01-19T18:16:39.744Z,95955.19
2023-01-19T18:18:44.011Z,95949.94
2023-01-19T18:20:46.780Z,95943.78
2023-01-19T18:22:49.417Z,95952.31
2023-01-19T18:24:52.195Z,95950.06
2023-01-19T18:26:55.767Z,95941.22
2023-01-19T18:28:59.229Z,95942.50
2023-01-19T18:31:02.309Z,95930.88
2023-01-19T18:33:06.721Z,95933.00
2023-01-19T18:35:10.021Z,95932.38
2023-01-19T18:37:12.655Z,95934.34
2023-01-19T18:39:16.008Z,95937.97
2023-01-19T18:41:20.502Z,95931.91
2023-01-19T18:43:23.165Z,95925.88
2023-01-19T18:45:25.858Z,95932.09
2023-01-19T18:47:28.580Z,95929.72
2023-01-19T18:49:32.522Z,95932.50
2023-01-19T18:51:36.588Z,95922.84
2023-01-19T18:53:39.579Z,95924.94
2023-01-19T18:55:52.077Z,95930.53
2023-01-19T18:57:54.905Z,95931.53
2023-01-19T18:59:57.520Z,95928.09
2023-01-19T19:02:01.404Z,95925.28
2023-01-19T19:04:04.184Z,95922.94
2023-01-19T19:06:09.104Z,95924.59
2023-01-19T19:08:12.103Z,95919.38
2023-01-19T19:10:15.339Z,95927.03
2023-01-19T19:12:18.209Z,95921.16
2023-01-19T19:14:20.826Z,95926.56
2023-01-19T19:16:23.930Z,95913.84
2023-01-19T19:18:26.725Z,95916.44
2023-01-19T19:20:29.680Z,95918.06
2023-01-19T19:22:33.989Z,95914.81
2023-01-19T19:24:36.627Z,95923.03
2023-01-19T19:26:39.294Z,95917.16
2023-01-19T19:28:42.319Z,95920.75
2023-01-19T19:30:46.463Z,95919.13
2023-01-19T19:32:53.943Z,95910.81
2023-01-19T19:34:58.751Z,95916.69
2023-01-19T19:37:02.368Z,95922.28
2023-01-19T19:39:06.992Z,95920.66
2023-01-19T19:41:12.211Z,95921.81
2023-01-19T19:43:14.937Z,95926.25
2023-01-19T19:45:17.738Z,95922.63
2023-01-19T19:47:20.740Z,95929.66
2023-01-19T19:49:23.935Z,95927.88
2023-01-19T19:51:28.480Z,95930.66
2023-01-19T19:53:31.122Z,95932.34
2023-01-19T19:55:35.093Z,95938.09
2023-01-19T19:57:37.939Z,95935.63
2023-01-19T19:59:40.951Z,95938.91
2023-01-19T20:01:44.951Z,95936.28
2023-01-19T20:03:48.074Z,95942.50
2023-01-19T20:05:50.724Z,95935.63
2023-01-19T20:07:53.333Z,95936.78
2023-01-19T20:09:56.206Z,95932.38
2023-01-19T20:12:00.363Z,95939.22
2023-01-19T20:14:05.873Z,95937.25
2023-01-19T20:16:11.134Z,95924.84
2023-01-19T20:18:14.073Z,95929.25
2023-01-19T20:20:17.285Z,95935.94
2023-01-19T20:22:20.020Z,95936.94
2023-01-19T20:24:22.662Z,95946.41
2023-01-19T20:26:27.756Z,95944.94
2023-01-19T20:28:31.765Z,95934.81
2023-01-19T20:30:34.594Z,95938.25
2023-01-19T21:19:45.613Z,95977.75
2023-01-19T21:21:48.372Z,95979.38
2023-01-19T21:23:51.157Z,95971.97
2023-01-19T21:25:55.903Z,95977.16
2023-01-19T21:27:58.660Z,95970.94
2023-01-19T21:30:02.296Z,95975.94
2023-01-19T21:32:05.224Z,95978.25
2023-01-19T21:34:08.088Z,95982.13
2023-01-19T21:36:12.999Z,95980.66
2023-01-19T21:38:15.803Z,95986.81
2023-01-19T21:40:22.474Z,95998.91
2023-01-19T21:42:25.325Z,95994.50
2023-01-19T21:44:28.443Z,95991.69
2023-01-19T21:46:32.972Z,96003.47
2023-01-19T21:48:35.726Z,95993.00
2023-01-19T21:50:38.492Z,95998.25
2023-01-19T21:52:42.592Z,96010.97
2023-01-19T21:54:45.345Z,96007.53
2023-01-19T21:56:48.044Z,96009.34
2023-01-19T21:58:53.259Z,96013.56
2023-01-19T22:01:04.017Z,96010.97
2023-01-19T22:03:09.107Z,96021.59
2023-01-19T22:05:12.549Z,96019.63
2023-01-19T22:07:15.631Z,96022.06
2023-01-19T22:09:19.735Z,96037.09
2023-01-19T22:11:23.439Z,96036.63
2023-01-19T22:13:26.213Z,96035.50
2023-01-19T22:15:28.862Z,96045.50
2023-01-19T22:17:31.757Z,96044.84
2023-01-19T22:19:35.858Z,96042.22
2023-01-19T22:21:38.689Z,96045.03
2023-01-19T22:23:42.174Z,96051.72
2023-01-19T22:25:46.191Z,96052.88
2023-01-19T22:27:49.245Z,96048.28
2023-01-19T22:29:51.952Z,96047.13
2023-01-19T22:31:54.848Z,96058.22
